RYR23ML LIMF-LICT
Flight info
| Callsign | RYR23ML |
|---|---|
| Flight time | 1h 19m |
| Altitude | 37000 |
| Route | LAGEN DCT EVROG DCT BAKRO DCT VELAD DCT TINTO DCT POKAV DCT BETOT DCT RUVIP DCT RONAB M740 ADUKA |
| Aircraft | B738/M-SDE2E3FGHIRWXY/LB1 |
Departure
| Time | 2026-04-23 12:58 |
|---|---|
| Airport | Turin Airport (LIMF) |
Arrival
| Time | 2026-04-23 14:17 |
|---|---|
| Airport | Vincenzo Florio Airport Trapani-Birgi (LICT) |
| Time | Latitude | Longitude | Altitude | Speed | Heading |
|---|---|---|---|---|---|
| 2026-04-23 12:34 | 45.19354 | 7.64473 | 985 ft | 0 kts | 232° |
| 2026-04-23 12:51 | 45.19369 | 7.64498 | 985 ft | 4 kts | 220° |
| 2026-04-23 12:51 | 45.19391 | 7.64518 | 989 ft | 4 kts | 199° |
| 2026-04-23 12:51 | 45.19417 | 7.64526 | 985 ft | 4 kts | 182° |
| 2026-04-23 12:52 | 45.19423 | 7.64526 | 985 ft | 0 kts | 181° |
| 2026-04-23 12:54 | 45.19404 | 7.64525 | 985 ft | 8 kts | 180° |
| 2026-04-23 12:54 | 45.19372 | 7.64591 | 988 ft | 9 kts | 107° |
| 2026-04-23 12:55 | 45.19341 | 7.64667 | 985 ft | 9 kts | 159° |
| 2026-04-23 12:55 | 45.19272 | 7.64669 | 991 ft | 11 kts | 184° |
| 2026-04-23 12:55 | 45.19186 | 7.64663 | 991 ft | 14 kts | 182° |
| 2026-04-23 12:55 | 45.19079 | 7.64657 | 989 ft | 17 kts | 182° |
| 2026-04-23 12:56 | 45.18957 | 7.64649 | 993 ft | 19 kts | 183° |
| 2026-04-23 12:56 | 45.18821 | 7.64639 | 987 ft | 20 kts | 182° |
| 2026-04-23 12:56 | 45.18696 | 7.64633 | 984 ft | 12 kts | 180° |
| 2026-04-23 12:56 | 45.18628 | 7.64692 | 989 ft | 12 kts | 121° |
| 2026-04-23 12:57 | 45.18611 | 7.64813 | 979 ft | 15 kts | 91° |
| 2026-04-23 12:57 | 45.18636 | 7.64874 | 978 ft | 7 kts | 3° |
| 2026-04-23 12:57 | 45.18693 | 7.64876 | 987 ft | 17 kts | 1° |
| 2026-04-23 12:57 | 45.19078 | 7.64900 | 983 ft | 93 kts | 2° |
| 2026-04-23 12:58 | 45.19955 | 7.64944 | 987 ft | 157 kts | 359° |
| 2026-04-23 12:58 | 45.21132 | 7.65010 | 1510 ft | 172 kts | 2° |
| 2026-04-23 12:58 | 45.22341 | 7.65145 | 2345 ft | 176 kts | 3° |
| 2026-04-23 12:58 | 45.23542 | 7.65295 | 3201 ft | 175 kts | 2° |
| 2026-04-23 12:59 | 45.24854 | 7.65365 | 3590 ft | 205 kts | 0° |
| 2026-04-23 12:59 | 45.26319 | 7.65624 | 3981 ft | 220 kts | 24° |
| 2026-04-23 12:59 | 45.27417 | 7.67109 | 4590 ft | 225 kts | 65° |
| 2026-04-23 12:59 | 45.27676 | 7.69375 | 4940 ft | 250 kts | 98° |
| 2026-04-23 13:00 | 45.27144 | 7.71831 | 5405 ft | 268 kts | 110° |
| 2026-04-23 13:00 | 45.26482 | 7.74331 | 6173 ft | 274 kts | 110° |
| 2026-04-23 13:00 | 45.25824 | 7.76895 | 7025 ft | 277 kts | 109° |
| 2026-04-23 13:00 | 45.25175 | 7.79480 | 7853 ft | 280 kts | 109° |
| 2026-04-23 13:01 | 45.24287 | 7.81911 | 8617 ft | 285 kts | 124° |
| 2026-04-23 13:01 | 45.23090 | 7.84214 | 9441 ft | 288 kts | 125° |
| 2026-04-23 13:01 | 45.21908 | 7.86481 | 10222 ft | 291 kts | 124° |
| 2026-04-23 13:01 | 45.20697 | 7.88839 | 10756 ft | 305 kts | 124° |
| 2026-04-23 13:02 | 45.19412 | 7.91383 | 10975 ft | 328 kts | 123° |
| 2026-04-23 13:02 | 45.18064 | 7.94064 | 11541 ft | 337 kts | 123° |
| 2026-04-23 13:02 | 45.16694 | 7.96776 | 12307 ft | 340 kts | 125° |
| 2026-04-23 13:02 | 45.14949 | 7.99065 | 13077 ft | 348 kts | 147° |
| 2026-04-23 13:03 | 45.12682 | 8.00302 | 13905 ft | 353 kts | 164° |
| 2026-04-23 13:03 | 45.10265 | 8.01091 | 14640 ft | 359 kts | 165° |
| 2026-04-23 13:03 | 45.07804 | 8.01841 | 15369 ft | 364 kts | 165° |
| 2026-04-23 13:03 | 45.05319 | 8.02595 | 16135 ft | 367 kts | 165° |
| 2026-04-23 13:04 | 45.02817 | 8.03368 | 16900 ft | 370 kts | 165° |
| 2026-04-23 13:04 | 45.00299 | 8.04159 | 17630 ft | 372 kts | 164° |
| 2026-04-23 13:04 | 44.97757 | 8.04966 | 18354 ft | 375 kts | 164° |
| 2026-04-23 13:04 | 44.95206 | 8.05782 | 19043 ft | 378 kts | 164° |
| 2026-04-23 13:05 | 44.92620 | 8.06610 | 19703 ft | 382 kts | 164° |
| 2026-04-23 13:05 | 44.90016 | 8.07443 | 20342 ft | 386 kts | 163° |
| 2026-04-23 13:05 | 44.87381 | 8.08286 | 20978 ft | 389 kts | 164° |
| 2026-04-23 13:05 | 44.84729 | 8.09134 | 21602 ft | 393 kts | 163° |
| 2026-04-23 13:06 | 44.79881 | 8.12410 | 22773 ft | 389 kts | 142° |
| 2026-04-23 13:06 | 44.77632 | 8.14563 | 23328 ft | 393 kts | 142° |
| 2026-04-23 13:06 | 44.75357 | 8.16724 | 23835 ft | 397 kts | 143° |
| 2026-04-23 13:07 | 44.73054 | 8.18892 | 24341 ft | 400 kts | 143° |
| 2026-04-23 13:07 | 44.71511 | 8.20333 | 24690 ft | 402 kts | 143° |
| 2026-04-23 13:07 | 44.69171 | 8.22503 | 25243 ft | 404 kts | 143° |
| 2026-04-23 13:07 | 44.66814 | 8.24679 | 25749 ft | 406 kts | 143° |
| 2026-04-23 13:08 | 44.64445 | 8.26862 | 26231 ft | 409 kts | 143° |
| 2026-04-23 13:08 | 44.62058 | 8.29058 | 26699 ft | 411 kts | 143° |
| 2026-04-23 13:08 | 44.59659 | 8.31262 | 27143 ft | 414 kts | 143° |
| 2026-04-23 13:08 | 44.57243 | 8.33481 | 27604 ft | 416 kts | 143° |
| 2026-04-23 13:09 | 44.54813 | 8.35710 | 28021 ft | 419 kts | 143° |
| 2026-04-23 13:09 | 44.52366 | 8.37953 | 28406 ft | 420 kts | 143° |
| 2026-04-23 13:09 | 44.49915 | 8.40196 | 28784 ft | 423 kts | 143° |
| 2026-04-23 13:09 | 44.47443 | 8.42457 | 29177 ft | 425 kts | 143° |
| 2026-04-23 13:10 | 44.44957 | 8.44729 | 29563 ft | 427 kts | 143° |
| 2026-04-23 13:10 | 44.42464 | 8.47005 | 29927 ft | 429 kts | 143° |
| 2026-04-23 13:10 | 44.39958 | 8.49291 | 30281 ft | 431 kts | 143° |
| 2026-04-23 13:10 | 44.37516 | 8.51721 | 30576 ft | 431 kts | 138° |
| 2026-04-23 13:11 | 44.35197 | 8.54375 | 30869 ft | 432 kts | 136° |
| 2026-04-23 13:11 | 44.32921 | 8.57131 | 31227 ft | 432 kts | 135° |
| 2026-04-23 13:11 | 44.30668 | 8.59894 | 31685 ft | 430 kts | 135° |
| 2026-04-23 13:11 | 44.28418 | 8.62636 | 32150 ft | 428 kts | 135° |
| 2026-04-23 13:12 | 44.26170 | 8.65344 | 32516 ft | 428 kts | 135° |
| 2026-04-23 13:12 | 44.23899 | 8.68053 | 32801 ft | 430 kts | 136° |
| 2026-04-23 13:12 | 44.21625 | 8.70742 | 33169 ft | 429 kts | 136° |
| 2026-04-23 13:12 | 44.19345 | 8.73422 | 33571 ft | 427 kts | 136° |
| 2026-04-23 13:13 | 44.17076 | 8.76081 | 33908 ft | 427 kts | 136° |
| 2026-04-23 13:13 | 44.14804 | 8.78740 | 34233 ft | 427 kts | 136° |
| 2026-04-23 13:13 | 44.12532 | 8.81396 | 34538 ft | 427 kts | 136° |
| 2026-04-23 13:13 | 44.10256 | 8.84054 | 34769 ft | 428 kts | 136° |
| 2026-04-23 13:14 | 44.07969 | 8.86725 | 35008 ft | 430 kts | 136° |
| 2026-04-23 13:14 | 44.05675 | 8.89401 | 35289 ft | 430 kts | 136° |
| 2026-04-23 13:14 | 44.03380 | 8.92074 | 35574 ft | 430 kts | 136° |
| 2026-04-23 13:14 | 44.01079 | 8.94752 | 35798 ft | 432 kts | 136° |
| 2026-04-23 13:15 | 43.98770 | 8.97437 | 35995 ft | 434 kts | 136° |
| 2026-04-23 13:15 | 43.96449 | 9.00133 | 36151 ft | 437 kts | 137° |
| 2026-04-23 13:15 | 43.94094 | 9.02866 | 36157 ft | 444 kts | 137° |
| 2026-04-23 13:15 | 43.91742 | 9.05594 | 36281 ft | 448 kts | 137° |
| 2026-04-23 13:16 | 43.89353 | 9.08356 | 36588 ft | 446 kts | 137° |
| 2026-04-23 13:16 | 43.86972 | 9.11107 | 36880 ft | 446 kts | 137° |
| 2026-04-23 13:16 | 43.84557 | 9.13894 | 37101 ft | 447 kts | 137° |
| 2026-04-23 13:16 | 43.82166 | 9.16652 | 37212 ft | 448 kts | 137° |
| 2026-04-23 13:17 | 43.79804 | 9.19379 | 37202 ft | 448 kts | 137° |
| 2026-04-23 13:17 | 43.75016 | 9.24879 | 37207 ft | 441 kts | 137° |
| 2026-04-23 13:18 | 43.70316 | 9.30273 | 37213 ft | 437 kts | 137° |
| 2026-04-23 13:18 | 43.65693 | 9.35578 | 37206 ft | 433 kts | 137° |
| 2026-04-23 13:19 | 43.61039 | 9.40901 | 37223 ft | 437 kts | 137° |
| 2026-04-23 13:19 | 43.56311 | 9.46303 | 37219 ft | 444 kts | 137° |
| 2026-04-23 13:20 | 43.51533 | 9.51735 | 37219 ft | 446 kts | 137° |
| 2026-04-23 13:20 | 43.46744 | 9.57178 | 37216 ft | 447 kts | 137° |
| 2026-04-23 13:21 | 43.41947 | 9.62618 | 37217 ft | 446 kts | 137° |
| 2026-04-23 13:21 | 43.37163 | 9.68034 | 37215 ft | 445 kts | 137° |
| 2026-04-23 13:22 | 43.32397 | 9.73418 | 37220 ft | 443 kts | 137° |
| 2026-04-23 13:22 | 43.27637 | 9.78783 | 37221 ft | 443 kts | 137° |
| 2026-04-23 13:23 | 43.22895 | 9.84136 | 37215 ft | 441 kts | 137° |
| 2026-04-23 13:23 | 43.18124 | 9.89430 | 37211 ft | 443 kts | 143° |
| 2026-04-23 13:24 | 43.12813 | 9.93736 | 37218 ft | 445 kts | 148° |
| 2026-04-23 13:24 | 43.07394 | 9.97851 | 37225 ft | 446 kts | 148° |
| 2026-04-23 13:25 | 43.01976 | 10.02017 | 37225 ft | 448 kts | 148° |
| 2026-04-23 13:25 | 42.96552 | 10.06236 | 37225 ft | 450 kts | 148° |
| 2026-04-23 13:26 | 42.91105 | 10.10486 | 37221 ft | 452 kts | 148° |
| 2026-04-23 13:26 | 42.85639 | 10.14748 | 37216 ft | 453 kts | 148° |
| 2026-04-23 13:27 | 42.80149 | 10.19015 | 37213 ft | 455 kts | 148° |
| 2026-04-23 13:27 | 42.74643 | 10.23285 | 37210 ft | 456 kts | 148° |
| 2026-04-23 13:28 | 42.69119 | 10.27560 | 37209 ft | 457 kts | 148° |
| 2026-04-23 13:28 | 42.63594 | 10.31825 | 37211 ft | 457 kts | 148° |
| 2026-04-23 13:29 | 42.58068 | 10.36084 | 37213 ft | 457 kts | 149° |
| 2026-04-23 13:29 | 42.52537 | 10.40339 | 37211 ft | 457 kts | 149° |
| 2026-04-23 13:30 | 42.47001 | 10.44588 | 37207 ft | 457 kts | 149° |
| 2026-04-23 13:30 | 42.41464 | 10.48829 | 37200 ft | 457 kts | 149° |
| 2026-04-23 13:31 | 42.35958 | 10.53037 | 37199 ft | 457 kts | 149° |
| 2026-04-23 13:31 | 42.30422 | 10.57259 | 37204 ft | 457 kts | 149° |
| 2026-04-23 13:32 | 42.24878 | 10.61481 | 37202 ft | 457 kts | 149° |
| 2026-04-23 13:32 | 42.19338 | 10.65692 | 37196 ft | 457 kts | 149° |
| 2026-04-23 13:33 | 42.13796 | 10.69895 | 37193 ft | 457 kts | 149° |
| 2026-04-23 13:33 | 42.08258 | 10.74088 | 37193 ft | 457 kts | 149° |
| 2026-04-23 13:34 | 42.02603 | 10.77997 | 37199 ft | 458 kts | 156° |
| 2026-04-23 13:34 | 41.96674 | 10.81114 | 37180 ft | 458 kts | 158° |
| 2026-04-23 13:35 | 41.90705 | 10.84166 | 37196 ft | 459 kts | 159° |
| 2026-04-23 13:35 | 41.84753 | 10.87284 | 37181 ft | 460 kts | 158° |
| 2026-04-23 13:36 | 41.78793 | 10.90448 | 37181 ft | 462 kts | 158° |
| 2026-04-23 13:36 | 41.72803 | 10.93624 | 37194 ft | 464 kts | 158° |
| 2026-04-23 13:37 | 41.66793 | 10.96801 | 37193 ft | 465 kts | 158° |
| 2026-04-23 13:37 | 41.60760 | 10.99983 | 37178 ft | 467 kts | 158° |
| 2026-04-23 13:38 | 41.54709 | 11.03168 | 37173 ft | 468 kts | 158° |
| 2026-04-23 13:38 | 41.48650 | 11.06356 | 37176 ft | 468 kts | 158° |
| 2026-04-23 13:39 | 41.42584 | 11.09538 | 37170 ft | 469 kts | 158° |
| 2026-04-23 13:39 | 41.36513 | 11.12719 | 37163 ft | 469 kts | 159° |
| 2026-04-23 13:40 | 41.30439 | 11.15897 | 37163 ft | 469 kts | 159° |
| 2026-04-23 13:40 | 41.24376 | 11.19067 | 37164 ft | 468 kts | 159° |
| 2026-04-23 13:41 | 41.18356 | 11.22206 | 37165 ft | 468 kts | 159° |
| 2026-04-23 13:41 | 41.12251 | 11.25380 | 37165 ft | 468 kts | 159° |
| 2026-04-23 13:42 | 41.06202 | 11.28522 | 37165 ft | 468 kts | 159° |
| 2026-04-23 13:42 | 41.00141 | 11.31663 | 37157 ft | 468 kts | 159° |
| 2026-04-23 13:43 | 40.94070 | 11.34803 | 37155 ft | 468 kts | 159° |
| 2026-04-23 13:43 | 40.88041 | 11.37916 | 37161 ft | 469 kts | 160° |
| 2026-04-23 13:44 | 40.81961 | 11.41047 | 37156 ft | 469 kts | 160° |
| 2026-04-23 13:44 | 40.75830 | 11.44197 | 37158 ft | 470 kts | 160° |
| 2026-04-23 13:45 | 40.70763 | 11.46796 | 37155 ft | 471 kts | 160° |
| 2026-04-23 13:45 | 40.63652 | 11.50435 | 37149 ft | 472 kts | 160° |
| 2026-04-23 13:46 | 40.57518 | 11.53569 | 37145 ft | 474 kts | 160° |
| 2026-04-23 13:46 | 40.51369 | 11.56705 | 37147 ft | 475 kts | 161° |
| 2026-04-23 13:47 | 40.45197 | 11.59847 | 37151 ft | 476 kts | 161° |
| 2026-04-23 13:47 | 40.39021 | 11.62985 | 37148 ft | 477 kts | 161° |
| 2026-04-23 13:48 | 40.32820 | 11.66129 | 37150 ft | 478 kts | 161° |
| 2026-04-23 13:48 | 40.26616 | 11.69263 | 37146 ft | 478 kts | 161° |
| 2026-04-23 13:49 | 40.20404 | 11.72398 | 37150 ft | 479 kts | 161° |
| 2026-04-23 13:49 | 40.14175 | 11.75538 | 37150 ft | 480 kts | 161° |
| 2026-04-23 13:50 | 40.07944 | 11.78673 | 37141 ft | 480 kts | 161° |
| 2026-04-23 13:50 | 40.01704 | 11.81794 | 37140 ft | 480 kts | 162° |
| 2026-04-23 13:51 | 39.95448 | 11.84903 | 36938 ft | 483 kts | 162° |
| 2026-04-23 13:51 | 39.92317 | 11.86383 | 36910 ft | 471 kts | 164° |
| 2026-04-23 13:51 | 39.90275 | 11.87297 | 36691 ft | 467 kts | 165° |
| 2026-04-23 13:51 | 39.86191 | 11.89060 | 36209 ft | 461 kts | 165° |
| 2026-04-23 13:52 | 39.84174 | 11.89919 | 35922 ft | 460 kts | 165° |
| 2026-04-23 13:52 | 39.81121 | 11.91221 | 35370 ft | 462 kts | 166° |
| 2026-04-23 13:52 | 39.78060 | 11.92535 | 34798 ft | 464 kts | 166° |
| 2026-04-23 13:52 | 39.74992 | 11.93863 | 34233 ft | 466 kts | 166° |
| 2026-04-23 13:53 | 39.71905 | 11.95204 | 33650 ft | 470 kts | 166° |
| 2026-04-23 13:53 | 39.68762 | 11.96570 | 33032 ft | 485 kts | 166° |
| 2026-04-23 13:53 | 39.65520 | 11.97979 | 32400 ft | 495 kts | 166° |
| 2026-04-23 13:53 | 39.62247 | 11.99404 | 31697 ft | 496 kts | 165° |
| 2026-04-23 13:54 | 39.58983 | 12.00832 | 31192 ft | 493 kts | 166° |
| 2026-04-23 13:54 | 39.55744 | 12.02249 | 30723 ft | 489 kts | 166° |
| 2026-04-23 13:54 | 39.52530 | 12.03653 | 30246 ft | 486 kts | 166° |
| 2026-04-23 13:54 | 39.49341 | 12.05042 | 29779 ft | 481 kts | 166° |
| 2026-04-23 13:55 | 39.46180 | 12.06416 | 29302 ft | 477 kts | 166° |
| 2026-04-23 13:55 | 39.43047 | 12.07775 | 28820 ft | 473 kts | 166° |
| 2026-04-23 13:55 | 39.39938 | 12.09121 | 28347 ft | 469 kts | 166° |
| 2026-04-23 13:55 | 39.36854 | 12.10455 | 27875 ft | 465 kts | 166° |
| 2026-04-23 13:56 | 39.33803 | 12.11774 | 27408 ft | 461 kts | 166° |
| 2026-04-23 13:56 | 39.30770 | 12.13083 | 26939 ft | 457 kts | 166° |
| 2026-04-23 13:56 | 39.27761 | 12.14381 | 26478 ft | 454 kts | 166° |
| 2026-04-23 13:56 | 39.24784 | 12.15663 | 26009 ft | 449 kts | 166° |
| 2026-04-23 13:57 | 39.21831 | 12.16934 | 25558 ft | 446 kts | 166° |
| 2026-04-23 13:57 | 39.18906 | 12.18192 | 25091 ft | 442 kts | 166° |
| 2026-04-23 13:57 | 39.15996 | 12.19443 | 24636 ft | 438 kts | 166° |
| 2026-04-23 13:57 | 39.13155 | 12.20663 | 24194 ft | 435 kts | 166° |
| 2026-04-23 13:58 | 39.10258 | 12.21906 | 23740 ft | 431 kts | 166° |
| 2026-04-23 13:58 | 39.07464 | 12.23104 | 23302 ft | 427 kts | 166° |
| 2026-04-23 13:58 | 39.04656 | 12.24308 | 22861 ft | 424 kts | 166° |
| 2026-04-23 13:58 | 39.01867 | 12.25502 | 22421 ft | 420 kts | 166° |
| 2026-04-23 13:59 | 38.99108 | 12.26683 | 21991 ft | 417 kts | 166° |
| 2026-04-23 13:59 | 38.96362 | 12.27856 | 21545 ft | 414 kts | 166° |
| 2026-04-23 13:59 | 38.93636 | 12.29020 | 21109 ft | 411 kts | 166° |
| 2026-04-23 13:59 | 38.90931 | 12.30174 | 20674 ft | 408 kts | 165° |
| 2026-04-23 14:00 | 38.89118 | 12.30946 | 20378 ft | 406 kts | 165° |
| 2026-04-23 14:00 | 38.85579 | 12.32454 | 19820 ft | 403 kts | 165° |
| 2026-04-23 14:00 | 38.82931 | 12.33581 | 19388 ft | 400 kts | 165° |
| 2026-04-23 14:00 | 38.80291 | 12.34704 | 18965 ft | 398 kts | 165° |
| 2026-04-23 14:01 | 38.77677 | 12.35815 | 18548 ft | 395 kts | 165° |
| 2026-04-23 14:01 | 38.75076 | 12.36919 | 18132 ft | 393 kts | 165° |
| 2026-04-23 14:01 | 38.72492 | 12.38016 | 17712 ft | 390 kts | 165° |
| 2026-04-23 14:01 | 38.69922 | 12.39105 | 17296 ft | 388 kts | 165° |
| 2026-04-23 14:02 | 38.67370 | 12.40187 | 16887 ft | 385 kts | 165° |
| 2026-04-23 14:02 | 38.64833 | 12.41261 | 16474 ft | 382 kts | 165° |
| 2026-04-23 14:02 | 38.62317 | 12.42326 | 16062 ft | 379 kts | 165° |
| 2026-04-23 14:02 | 38.59818 | 12.43382 | 15656 ft | 377 kts | 165° |
| 2026-04-23 14:03 | 38.57336 | 12.44431 | 15253 ft | 374 kts | 165° |
| 2026-04-23 14:03 | 38.54872 | 12.45472 | 14843 ft | 372 kts | 165° |
| 2026-04-23 14:03 | 38.52426 | 12.46504 | 14450 ft | 370 kts | 165° |
| 2026-04-23 14:03 | 38.49991 | 12.47531 | 14049 ft | 367 kts | 165° |
| 2026-04-23 14:04 | 38.47573 | 12.48549 | 13651 ft | 365 kts | 164° |
| 2026-04-23 14:04 | 38.45175 | 12.49557 | 13256 ft | 362 kts | 164° |
| 2026-04-23 14:04 | 38.42790 | 12.50560 | 12859 ft | 359 kts | 164° |
| 2026-04-23 14:04 | 38.40424 | 12.51554 | 12464 ft | 357 kts | 164° |
| 2026-04-23 14:05 | 38.38077 | 12.52540 | 12072 ft | 354 kts | 164° |
| 2026-04-23 14:05 | 38.35750 | 12.53517 | 11684 ft | 351 kts | 163° |
| 2026-04-23 14:05 | 38.33433 | 12.54487 | 11298 ft | 349 kts | 163° |
| 2026-04-23 14:05 | 38.31141 | 12.55448 | 10908 ft | 346 kts | 163° |
| 2026-04-23 14:06 | 38.28863 | 12.56404 | 10589 ft | 342 kts | 163° |
| 2026-04-23 14:06 | 38.26640 | 12.57328 | 10461 ft | 332 kts | 163° |
| 2026-04-23 14:06 | 38.24472 | 12.58229 | 10313 ft | 323 kts | 162° |
| 2026-04-23 14:06 | 38.22388 | 12.59103 | 10097 ft | 310 kts | 162° |
| 2026-04-23 14:07 | 38.20395 | 12.60032 | 9755 ft | 301 kts | 156° |
| 2026-04-23 14:07 | 38.16688 | 12.62277 | 9093 ft | 291 kts | 154° |
| 2026-04-23 14:07 | 38.14869 | 12.63392 | 8780 ft | 290 kts | 153° |
| 2026-04-23 14:08 | 38.13061 | 12.64492 | 8460 ft | 287 kts | 153° |
| 2026-04-23 14:08 | 38.11266 | 12.65579 | 8173 ft | 285 kts | 153° |
| 2026-04-23 14:08 | 38.09485 | 12.66651 | 7942 ft | 282 kts | 154° |
| 2026-04-23 14:08 | 38.07718 | 12.67714 | 7708 ft | 281 kts | 153° |
| 2026-04-23 14:09 | 38.05940 | 12.68778 | 7477 ft | 283 kts | 153° |
| 2026-04-23 14:09 | 38.04169 | 12.69835 | 7243 ft | 285 kts | 153° |
| 2026-04-23 14:09 | 38.02357 | 12.70914 | 7011 ft | 284 kts | 153° |
| 2026-04-23 14:09 | 38.00592 | 12.71958 | 6727 ft | 285 kts | 154° |
| 2026-04-23 14:10 | 37.98788 | 12.73022 | 6365 ft | 285 kts | 154° |
| 2026-04-23 14:10 | 37.96997 | 12.74090 | 6005 ft | 283 kts | 153° |
| 2026-04-23 14:10 | 37.95240 | 12.75139 | 5712 ft | 274 kts | 153° |
| 2026-04-23 14:10 | 37.93568 | 12.76172 | 5433 ft | 264 kts | 152° |
| 2026-04-23 14:11 | 37.91941 | 12.77144 | 5181 ft | 254 kts | 153° |
| 2026-04-23 14:11 | 37.90315 | 12.77939 | 4890 ft | 249 kts | 170° |
| 2026-04-23 14:11 | 37.88604 | 12.77987 | 4653 ft | 242 kts | 185° |
| 2026-04-23 14:11 | 37.87012 | 12.77382 | 4404 ft | 240 kts | 210° |
| 2026-04-23 14:12 | 37.85579 | 12.76297 | 4169 ft | 241 kts | 213° |
| 2026-04-23 14:12 | 37.84163 | 12.75162 | 3924 ft | 241 kts | 213° |
| 2026-04-23 14:12 | 37.82752 | 12.74021 | 3672 ft | 241 kts | 213° |
| 2026-04-23 14:12 | 37.81341 | 12.72875 | 3419 ft | 241 kts | 213° |
| 2026-04-23 14:13 | 37.80128 | 12.71456 | 3147 ft | 238 kts | 241° |
| 2026-04-23 14:13 | 37.79690 | 12.69561 | 3055 ft | 214 kts | 270° |
| 2026-04-23 14:13 | 37.79743 | 12.67758 | 3006 ft | 198 kts | 285° |
| 2026-04-23 14:13 | 37.80380 | 12.66327 | 3023 ft | 184 kts | 315° |
| 2026-04-23 14:14 | 37.81210 | 12.65055 | 2973 ft | 190 kts | 310° |
| 2026-04-23 14:14 | 37.82023 | 12.63696 | 2760 ft | 196 kts | 310° |
| 2026-04-23 14:14 | 37.82849 | 12.62335 | 2508 ft | 194 kts | 311° |
| 2026-04-23 14:14 | 37.83669 | 12.60993 | 2252 ft | 192 kts | 311° |
| 2026-04-23 14:15 | 37.84479 | 12.59669 | 1996 ft | 189 kts | 311° |
| 2026-04-23 14:15 | 37.85282 | 12.58357 | 1745 ft | 187 kts | 311° |
| 2026-04-23 14:15 | 37.86056 | 12.57090 | 1510 ft | 176 kts | 311° |
| 2026-04-23 14:15 | 37.86770 | 12.55922 | 1301 ft | 161 kts | 311° |
| 2026-04-23 14:16 | 37.87429 | 12.54847 | 1078 ft | 150 kts | 311° |
| 2026-04-23 14:16 | 37.88070 | 12.53802 | 888 ft | 151 kts | 311° |
| 2026-04-23 14:16 | 37.88708 | 12.52759 | 678 ft | 148 kts | 310° |
| 2026-04-23 14:16 | 37.89331 | 12.51743 | 488 ft | 147 kts | 309° |
| 2026-04-23 14:17 | 37.89962 | 12.50712 | 301 ft | 148 kts | 309° |
| 2026-04-23 14:17 | 37.90583 | 12.49698 | 79 ft | 143 kts | 310° |
| 2026-04-23 14:17 | 37.91140 | 12.48794 | 27 ft | 105 kts | 307° |
| 2026-04-23 14:17 | 37.91461 | 12.48289 | 22 ft | 40 kts | 308° |
| 2026-04-23 14:18 | 37.91527 | 12.48141 | 18 ft | 10 kts | 276° |
| 2026-04-23 14:18 | 37.91551 | 12.48133 | 18 ft | 2 kts | 83° |
| 2026-04-23 14:18 | 37.91540 | 12.48150 | 19 ft | 3 kts | 126° |
| 2026-04-23 14:18 | 37.91504 | 12.48208 | 21 ft | 15 kts | 129° |
| 2026-04-23 14:19 | 37.91418 | 12.48348 | 23 ft | 24 kts | 127° |
| 2026-04-23 14:19 | 37.91322 | 12.48512 | 27 ft | 24 kts | 126° |
| 2026-04-23 14:19 | 37.91216 | 12.48685 | 28 ft | 25 kts | 128° |
| 2026-04-23 14:19 | 37.91104 | 12.48867 | 27 ft | 28 kts | 128° |
| 2026-04-23 14:20 | 37.90980 | 12.49065 | 27 ft | 29 kts | 128° |
| 2026-04-23 14:20 | 37.90865 | 12.49249 | 31 ft | 23 kts | 128° |
| 2026-04-23 14:20 | 37.90754 | 12.49390 | 32 ft | 22 kts | 148° |
| 2026-04-23 14:20 | 37.90636 | 12.49461 | 35 ft | 15 kts | 159° |
| 2026-04-23 14:21 | 37.90543 | 12.49507 | 34 ft | 14 kts | 157° |
| 2026-04-23 14:21 | 37.90453 | 12.49550 | 31 ft | 10 kts | 182° |
| 2026-04-23 14:21 | 37.90399 | 12.49541 | 30 ft | 5 kts | 157° |
| 2026-04-23 14:21 | 37.90376 | 12.49569 | 30 ft | 5 kts | 128° |
| 2026-04-23 14:22 | 37.90357 | 12.49601 | 30 ft | 5 kts | 128° |
| 2026-04-23 14:22 | 37.90331 | 12.49609 | 30 ft | 5 kts | 223° |
| 2026-04-23 14:22 | 37.90323 | 12.49568 | 30 ft | 4 kts | 261° |
| 2026-04-23 14:22 | 37.90321 | 12.49549 | 30 ft | 0 kts | 262° |
| 2026-04-23 14:23 | 37.90321 | 12.49546 | 30 ft | 0 kts | 261° |